Accueil
METAR-TAF:

METAR-TAF

Aéroports :

Bric della Croce

Turin, Italie

latitude: 45-02N, longitude: 007-44E, altitude: 709 m

Observation

Le bulletin a été fait il y a 14 heures et 58 minutes, à 17:55 UTC
Vent calme
Température 0°C
Humidité 100%
Pression 992 hPa
Visibilité: 0100 m
brouillard

METAR: LIMK 041755Z 00000KT 0100 FG VV/// 00/00 Q0992 RMK VAL INVIS VIS MIN 0100

Heure: 09:53 (08:53 UTC)


TAF: absent

Observations et prévisions météorologiques de plus de 4000 aéroports (messages METAR et TAF).

Les stations disponibles sont représentées par des disques jaunes et rouges sur la carte.

Passer la souris dessus pour voir le nom de la station.

Cliquer dessus pour voir les observations et prévisions météorologiques.

Pour changer de carte: cliquez sur les boutons verts avec une croix noire pour zoomer, sur le bouton vert avec un tiret pour effectuer un zoom arrière, ou sur les flèches vertes pour les cartes adjacentes.


METAR-TAF: